createdAt,value
2022-08-26T00:01:54.449Z,99384.13
2022-08-26T00:04:24.875Z,99388.00
2022-08-26T00:06:53.782Z,99390.50
2022-08-26T00:09:22.074Z,99387.78
2022-08-26T00:11:49.464Z,99397.09
2022-08-26T00:14:18.058Z,99386.75
2022-08-26T00:16:47.495Z,99391.63
2022-08-26T00:19:20.899Z,99385.66
2022-08-26T00:21:49.947Z,99390.59
2022-08-26T00:24:20.839Z,99384.31
2022-08-26T00:26:49.012Z,99384.13
2022-08-26T00:29:17.681Z,99387.94
2022-08-26T00:31:45.526Z,99384.13
2022-08-26T00:34:14.307Z,99386.94
2022-08-26T00:36:43.644Z,99384.22
2022-08-26T00:39:11.126Z,99383.09
2022-08-26T00:41:40.320Z,99379.25
2022-08-26T00:44:10.271Z,99383.09
2022-08-26T00:46:50.368Z,99375.50
2022-08-26T00:49:39.495Z,99382.59
2022-08-26T00:52:11.914Z,99368.94
2022-08-26T00:54:47.009Z,99381.25
2022-08-26T00:57:18.482Z,99384.56
2022-08-26T00:59:54.684Z,99378.69
2022-08-26T01:02:22.202Z,99375.16
2022-08-26T01:04:57.223Z,99379.81
2022-08-26T01:07:31.426Z,99386.38
2022-08-26T01:10:02.363Z,99380.19
2022-08-26T01:12:40.196Z,99382.41
2022-08-26T01:15:13.720Z,99382.41
2022-08-26T01:17:42.568Z,99387.84
2022-08-26T01:20:37.918Z,99367.19
2022-08-26T01:23:08.878Z,99376.50
2022-08-26T01:25:46.732Z,99369.44
2022-08-26T01:28:28.068Z,99378.75
2022-08-26T01:30:57.366Z,99374.91
2022-08-26T01:33:51.202Z,99374.97
2022-08-26T01:36:18.434Z,99372.25
2022-08-26T01:38:47.922Z,99373.88
2022-08-26T01:41:19.888Z,99367.88
2022-08-26T01:43:57.941Z,99378.50
2022-08-26T01:46:28.476Z,99382.34
2022-08-26T01:49:01.486Z,99372.53
2022-08-26T01:51:30.361Z,99372.53
2022-08-26T01:53:58.152Z,99374.47
2022-08-26T01:56:26.960Z,99372.84
2022-08-26T01:59:05.604Z,99380.44
2022-08-26T02:01:34.615Z,99382.09
2022-08-26T02:04:24.491Z,99379.13
2022-08-26T02:06:51.890Z,99383.78
2022-08-26T02:09:21.886Z,99379.94
2022-08-26T02:11:48.979Z,99378.31
2022-08-26T02:14:27.955Z,99389.25
2022-08-26T02:16:56.101Z,99387.00
2022-08-26T02:19:30.605Z,99393.50
2022-08-26T02:22:07.591Z,99393.50
2022-08-26T02:24:55.803Z,99398.56
2022-08-26T02:27:32.636Z,99397.00
2022-08-26T02:30:21.604Z,99396.03
2022-08-26T02:32:49.793Z,99395.09
2022-08-26T02:35:20.510Z,99398.50
2022-08-26T02:37:49.837Z,99400.78
2022-08-26T02:40:23.658Z,99398.72
2022-08-26T02:42:52.977Z,99404.53
2022-08-26T02:45:23.259Z,99401.06
2022-08-26T02:47:52.349Z,99396.78
2022-08-26T02:50:20.261Z,99394.09
2022-08-26T02:52:48.332Z,99398.81
2022-08-26T02:55:16.531Z,99388.56
2022-08-26T02:57:43.990Z,99388.34
2022-08-26T03:00:14.809Z,99394.16
2022-08-26T03:02:42.266Z,99389.06
2022-08-26T03:05:11.235Z,99383.97
2022-08-26T03:07:38.450Z,99387.00
2022-08-26T03:10:08.484Z,99390.06
2022-08-26T03:12:36.225Z,99387.69
2022-08-26T03:15:16.464Z,99388.31
2022-08-26T03:17:47.444Z,99382.03
2022-08-26T03:20:17.308Z,99389.66
2022-08-26T03:22:45.436Z,99387.00
2022-08-26T03:25:16.408Z,99393.84
2022-08-26T03:27:43.917Z,99393.84
2022-08-26T03:30:32.826Z,99396.34
2022-08-26T03:33:00.760Z,99391.72
2022-08-26T03:35:28.096Z,99396.97
2022-08-26T03:37:55.423Z,99402.13
2022-08-26T03:40:22.801Z,99411.69
2022-08-26T03:42:50.338Z,99401.34
2022-08-26T03:45:18.961Z,99404.66
2022-08-26T03:47:47.167Z,99402.78
2022-08-26T03:50:22.584Z,99398.75
2022-08-26T03:52:52.365Z,99392.78
2022-08-26T03:55:23.727Z,99391.13
2022-08-26T03:57:51.799Z,99401.22
2022-08-26T04:00:20.056Z,99394.97
2022-08-26T04:02:51.096Z,99397.16
2022-08-26T04:05:23.146Z,99393.09
2022-08-26T04:07:51.641Z,99399.38
2022-08-26T04:10:29.080Z,99406.16
2022-08-26T04:12:59.458Z,99401.00
2022-08-26T04:15:27.430Z,99402.41
2022-08-26T04:17:54.558Z,99406.50
2022-08-26T04:20:23.215Z,99403.25
2022-08-26T04:22:51.007Z,99398.38
2022-08-26T04:25:18.616Z,99400.56
2022-08-26T04:27:48.275Z,99401.13
2022-08-26T04:30:16.004Z,99406.56
2022-08-26T04:32:43.860Z,99407.13
2022-08-26T04:35:11.041Z,99408.22
2022-08-26T04:37:38.077Z,99408.50
2022-08-26T04:40:06.428Z,99408.25
2022-08-26T04:42:33.727Z,99408.53
2022-08-26T04:45:05.767Z,99409.91
2022-08-26T04:47:37.128Z,99409.38
2022-08-26T04:50:06.903Z,99402.88
2022-08-26T04:52:36.519Z,99397.97
2022-08-26T04:55:06.626Z,99406.44
2022-08-26T04:57:35.765Z,99408.63
2022-08-26T05:00:06.388Z,99406.16
2022-08-26T05:02:33.392Z,99406.72
2022-08-26T05:05:00.384Z,99413.50
2022-08-26T05:07:27.316Z,99409.97
2022-08-26T05:09:54.578Z,99416.50
2022-08-26T05:12:21.511Z,99421.13
2022-08-26T05:14:48.486Z,99417.59
2022-08-26T05:17:15.431Z,99420.91
2022-08-26T05:19:42.967Z,99424.19
2022-08-26T05:22:10.299Z,99418.22
2022-08-26T05:24:41.346Z,99415.25
2022-08-26T05:27:11.711Z,99412.81
2022-08-26T05:29:40.093Z,99411.41
2022-08-26T05:32:07.485Z,99418.75
2022-08-26T05:34:34.455Z,99416.59
2022-08-26T05:37:02.090Z,99420.94
2022-08-26T05:39:29.409Z,99427.44
2022-08-26T05:41:56.400Z,99426.34
2022-08-26T05:44:23.792Z,99431.50
2022-08-26T05:46:51.586Z,99432.88
2022-08-26T05:49:18.673Z,99428.78
2022-08-26T05:51:47.786Z,99438.31
2022-08-26T05:54:22.354Z,99445.91
2022-08-26T05:56:52.935Z,99434.72
2022-08-26T05:59:24.108Z,99435.03
2022-08-26T06:01:52.186Z,99436.63
2022-08-26T06:04:19.989Z,99437.72
2022-08-26T06:06:47.485Z,99435.53
2022-08-26T06:09:14.616Z,99434.44
2022-08-26T06:11:44.786Z,99440.97
2022-08-26T06:14:11.789Z,99436.84
2022-08-26T06:16:41.960Z,99442.28
2022-08-26T06:19:11.505Z,99446.91
2022-08-26T06:21:42.198Z,99449.84
2022-08-26T06:24:32.272Z,99456.59
2022-08-26T06:27:08.213Z,99460.41
2022-08-26T06:29:37.569Z,99470.44
2022-08-26T06:32:05.740Z,99471.50
2022-08-26T06:34:34.087Z,99471.19
2022-08-26T06:37:06.288Z,99479.91
2022-08-26T06:39:34.170Z,99477.69
2022-08-26T06:42:02.937Z,99471.69
2022-08-26T06:44:34.274Z,99467.31
2022-08-26T06:47:01.559Z,99464.56
2022-08-26T06:49:28.596Z,99465.59
2022-08-26T06:51:58.957Z,99466.13
2022-08-26T06:54:28.723Z,99464.97
2022-08-26T06:56:57.126Z,99473.63
2022-08-26T06:59:24.651Z,99479.56
2022-08-26T07:01:52.223Z,99477.34
2022-08-26T07:04:21.798Z,99481.09
2022-08-26T07:06:52.696Z,99476.94
2022-08-26T07:09:23.584Z,99468.41
2022-08-26T07:11:51.289Z,99479.28
2022-08-26T07:14:19.370Z,99482.78
2022-08-26T07:16:50.247Z,99489.50
2022-08-26T07:19:30.892Z,99490.00
2022-08-26T07:22:01.960Z,99490.47
2022-08-26T07:24:29.677Z,99487.91
2022-08-26T07:27:03.012Z,99487.28
2022-08-26T07:29:33.144Z,99482.00
2022-08-26T07:32:00.261Z,99477.81
2022-08-26T07:34:32.312Z,99480.72
2022-08-26T07:37:00.320Z,99487.72
2022-08-26T07:39:28.373Z,99492.03
2022-08-26T07:42:01.609Z,99490.84
2022-08-26T07:44:37.774Z,99490.22
2022-08-26T07:47:10.459Z,99487.72
2022-08-26T07:49:55.372Z,99492.28
2022-08-26T07:52:26.154Z,99496.28
2022-08-26T07:54:54.711Z,99497.56
2022-08-26T07:57:21.698Z,99488.75
2022-08-26T07:59:51.977Z,99492.75
2022-08-26T08:02:21.288Z,99486.97
2022-08-26T08:04:49.285Z,99487.19
2022-08-26T08:07:16.273Z,99485.22
2022-08-26T08:09:43.250Z,99489.50
2022-08-26T08:12:14.060Z,99495.38
2022-08-26T08:14:45.135Z,99489.28
2022-08-26T08:17:13.092Z,99482.00
2022-08-26T08:19:40.665Z,99485.69
2022-08-26T08:22:17.436Z,99486.63
2022-08-26T08:24:46.790Z,99480.75
2022-08-26T08:27:22.804Z,99482.78
2022-08-26T08:29:54.113Z,99480.19
2022-08-26T08:32:22.284Z,99483.84
2022-08-26T08:34:49.290Z,99488.03
2022-08-26T08:37:16.318Z,99488.63
2022-08-26T08:39:43.747Z,99489.25
2022-08-26T08:42:38.750Z,99489.44
2022-08-26T08:45:37.010Z,99474.91
2022-08-26T08:48:20.720Z,99474.13
2022-08-26T08:51:08.137Z,99484.22
2022-08-26T08:53:41.598Z,99477.84
2022-08-26T08:56:38.899Z,99482.78
2022-08-26T08:59:26.328Z,99474.44
2022-08-26T09:02:24.063Z,99479.66
2022-08-26T09:05:25.903Z,99484.91
2022-08-26T09:08:04.704Z,99472.78
2022-08-26T09:10:46.506Z,99476.72
2022-08-26T09:13:19.593Z,99469.84
2022-08-26T09:16:40.727Z,99465.44
2022-08-26T09:19:38.806Z,99466.63
2022-08-26T09:22:09.649Z,99471.09
2022-08-26T09:24:41.786Z,99468.91
2022-08-26T09:27:08.941Z,99459.88
2022-08-26T09:29:45.427Z,99455.91
2022-08-26T09:32:24.196Z,99460.78
2022-08-26T09:35:23.090Z,99461.25
2022-08-26T09:40:29.911Z,99446.38
2022-08-26T09:43:22.656Z,99458.16
2022-08-26T09:46:18.776Z,99460.53
2022-08-26T09:48:45.834Z,99463.78
2022-08-26T09:51:26.282Z,99454.03
2022-08-26T09:53:59.739Z,99455.81
2022-08-26T09:56:34.486Z,99446.22
2022-08-26T09:59:02.474Z,99442.44
2022-08-26T10:01:36.241Z,99440.28
2022-08-26T10:04:22.466Z,99431.19
2022-08-26T10:07:06.023Z,99426.75
2022-08-26T10:09:39.675Z,99413.38
2022-08-26T10:12:27.229Z,99422.91
2022-08-26T10:15:01.533Z,99412.97
2022-08-26T10:17:35.929Z,99416.00
2022-08-26T10:20:23.599Z,99410.63
2022-08-26T10:23:21.538Z,99412.69
2022-08-26T10:26:11.624Z,99405.50
2022-08-26T10:29:01.472Z,99397.38
2022-08-26T10:31:52.982Z,99402.69
2022-08-26T10:34:21.080Z,99408.78
2022-08-26T10:37:15.731Z,99400.31
2022-08-26T10:39:58.903Z,99400.56
2022-08-26T10:42:38.003Z,99408.19
2022-08-26T10:45:16.453Z,99403.94
2022-08-26T10:48:10.144Z,99416.38
2022-08-26T10:50:41.867Z,99406.88
2022-08-26T10:53:55.745Z,99402.19
2022-08-26T10:56:53.606Z,99406.28
2022-08-26T11:00:30.324Z,99392.50
2022-08-26T11:03:27.015Z,99391.81
2022-08-26T11:06:22.669Z,99381.44
2022-08-26T11:09:05.496Z,99380.19
2022-08-26T11:11:41.267Z,99381.81
2022-08-26T11:14:28.977Z,99379.00
2022-08-26T11:17:00.077Z,99369.53
2022-08-26T11:19:59.630Z,99369.88
2022-08-26T11:22:35.554Z,99370.31
2022-08-26T11:25:11.495Z,99365.91
2022-08-26T11:27:38.839Z,99357.34
2022-08-26T11:30:18.339Z,99358.50
2022-08-26T11:32:49.350Z,99347.97
2022-08-26T11:35:20.423Z,99340.34
2022-08-26T11:37:58.144Z,99337.06
2022-08-26T11:40:27.971Z,99336.22
2022-08-26T11:43:29.847Z,99329.63
2022-08-26T11:46:10.909Z,99326.03
2022-08-26T11:48:43.815Z,99321.38
2022-08-26T11:51:19.422Z,99329.63
2022-08-26T11:53:47.368Z,99323.97
2022-08-26T11:56:31.731Z,99324.41
2022-08-26T11:59:03.535Z,99327.72
2022-08-26T12:01:38.448Z,99329.88
2022-08-26T12:04:10.636Z,99325.69
2022-08-26T12:06:46.750Z,99318.47
2022-08-26T12:09:36.753Z,99315.41
2022-08-26T12:12:35.237Z,99313.16
2022-08-26T12:15:21.896Z,99300.31
2022-08-26T12:17:54.401Z,99300.50
2022-08-26T12:20:54.229Z,99300.03
2022-08-26T12:23:50.082Z,99301.84
2022-08-26T12:26:44.010Z,99292.16
2022-08-26T12:29:27.091Z,99296.56
2022-08-26T12:32:18.526Z,99292.56
2022-08-26T12:34:48.941Z,99297.28
2022-08-26T12:37:16.141Z,99286.94
2022-08-26T12:39:46.184Z,99290.41
2022-08-26T12:42:13.016Z,99285.75
2022-08-26T12:45:06.584Z,99292.38
2022-08-26T12:47:44.233Z,99285.59
2022-08-26T12:50:23.675Z,99282.63
2022-08-26T12:53:15.544Z,99283.09
2022-08-26T12:55:58.824Z,99283.59
2022-08-26T12:58:37.921Z,99275.09
2022-08-26T13:01:05.035Z,99274.88
2022-08-26T13:03:34.984Z,99266.56
2022-08-26T13:06:29.569Z,99255.91
2022-08-26T13:09:29.617Z,99253.66
2022-08-26T13:11:58.114Z,99243.09
2022-08-26T13:14:25.181Z,99240.19
2022-08-26T13:16:53.390Z,99231.34
2022-08-26T13:19:25.344Z,99220.19
2022-08-26T13:22:00.498Z,99216.25
2022-08-26T13:24:42.118Z,99220.03
2022-08-26T13:27:13.824Z,99211.72
2022-08-26T13:29:41.436Z,99207.81
2022-08-26T13:32:09.332Z,99212.38
2022-08-26T13:34:37.974Z,99208.38
2022-08-26T13:37:06.247Z,99213.19
2022-08-26T13:39:33.307Z,99216.06
2022-08-26T13:42:00.501Z,99215.91
2022-08-26T13:44:27.759Z,99210.13
2022-08-26T13:46:54.845Z,99226.41
2022-08-26T13:49:22.581Z,99216.56
2022-08-26T13:51:49.647Z,99224.88
2022-08-26T13:54:16.661Z,99227.03
2022-08-26T13:56:43.703Z,99220.66
2022-08-26T13:59:10.977Z,99217.44
2022-08-26T14:01:38.084Z,99211.41
2022-08-26T14:04:05.077Z,99202.13
2022-08-26T14:06:32.161Z,99203.97
2022-08-26T14:08:59.748Z,99197.28
2022-08-26T14:11:27.581Z,99206.66
2022-08-26T14:13:54.520Z,99205.75
2022-08-26T14:16:33.143Z,99212.00
2022-08-26T14:19:01.849Z,99203.19
2022-08-26T14:21:32.563Z,99194.94
2022-08-26T14:24:01.083Z,99191.34
2022-08-26T14:26:29.820Z,99188.06
2022-08-26T14:29:03.786Z,99182.94
2022-08-26T14:31:33.009Z,99186.84
2022-08-26T14:34:04.838Z,99194.50
2022-08-26T14:36:32.374Z,99191.59
2022-08-26T14:39:12.923Z,99200.69
2022-08-26T14:41:54.617Z,99192.97
2022-08-26T14:44:33.435Z,99204.63
2022-08-26T14:47:04.300Z,99204.78
2022-08-26T14:49:31.640Z,99203.84
2022-08-26T14:51:58.631Z,99194.38
2022-08-26T14:54:26.170Z,99188.16
2022-08-26T14:57:00.288Z,99187.63
2022-08-26T14:59:37.374Z,99188.84
2022-08-26T15:02:07.665Z,99187.41
2022-08-26T15:04:35.250Z,99190.59
2022-08-26T15:07:03.738Z,99194.34
2022-08-26T15:09:34.946Z,99193.53
2022-08-26T15:12:02.522Z,99204.38
2022-08-26T15:14:32.864Z,99205.56
2022-08-26T15:17:00.466Z,99208.22
2022-08-26T15:19:27.860Z,99212.75
2022-08-26T15:21:55.026Z,99215.81
2022-08-26T15:24:25.062Z,99216.19
2022-08-26T15:26:53.375Z,99224.91
2022-08-26T15:29:23.712Z,99229.06
2022-08-26T15:31:51.075Z,99235.81
2022-08-26T15:34:18.232Z,99251.50
2022-08-26T15:36:47.197Z,99258.56
2022-08-26T15:39:17.091Z,99266.94
2022-08-26T15:41:44.394Z,99309.69
2022-08-26T15:44:13.679Z,99328.28
2022-08-26T15:46:40.834Z,99347.47
2022-08-26T15:49:08.061Z,99357.97
2022-08-26T15:51:45.366Z,99338.91
2022-08-26T15:54:16.551Z,99313.88
2022-08-26T15:56:44.335Z,99328.97
2022-08-26T15:59:12.091Z,99326.81
2022-08-26T16:01:39.677Z,99342.16
2022-08-26T16:04:07.224Z,99339.00
2022-08-26T16:06:38.354Z,99335.13
2022-08-26T16:09:07.263Z,99340.53
2022-08-26T16:11:35.995Z,99334.44
2022-08-26T16:14:04.613Z,99365.63
2022-08-26T16:16:32.316Z,99356.19
2022-08-26T16:19:00.572Z,99354.59
2022-08-26T16:21:30.730Z,99357.59
2022-08-26T16:23:58.199Z,99360.31
2022-08-26T16:26:32.335Z,99350.06
2022-08-26T16:29:02.563Z,99361.13
2022-08-26T16:31:29.649Z,99348.91
2022-08-26T16:33:56.696Z,99353.56
2022-08-26T16:36:23.667Z,99343.81
2022-08-26T16:38:56.273Z,99353.53
2022-08-26T16:41:26.159Z,99358.41
2022-08-26T16:43:53.984Z,99369.50
2022-08-26T16:46:23.586Z,99379.00
2022-08-26T16:48:52.184Z,99374.13
2022-08-26T16:51:26.794Z,99380.66
2022-08-26T16:53:56.171Z,99381.75
2022-08-26T16:56:30.589Z,99374.22
2022-08-26T16:59:04.960Z,99360.66
2022-08-26T17:01:32.243Z,99360.41
2022-08-26T17:03:59.360Z,99350.38
2022-08-26T17:06:26.316Z,99356.28
2022-08-26T17:08:53.300Z,99348.44
2022-08-26T17:11:20.320Z,99367.06
2022-08-26T17:13:47.320Z,99361.63
2022-08-26T17:16:15.603Z,99355.66
2022-08-26T17:18:42.828Z,99357.84
2022-08-26T17:21:13.160Z,99359.47
2022-08-26T17:23:42.297Z,99367.00
2022-08-26T17:26:11.880Z,99370.28
2022-08-26T17:28:39.724Z,99377.34
2022-08-26T17:31:07.974Z,99368.13
2022-08-26T17:33:35.119Z,99373.00
2022-08-26T17:36:02.908Z,99375.72
2022-08-26T17:38:32.783Z,99372.50
2022-08-26T17:41:00.038Z,99373.03
2022-08-26T17:43:27.178Z,99386.88
2022-08-26T17:46:07.239Z,99390.94
2022-08-26T17:48:37.299Z,99393.66
2022-08-26T17:51:14.706Z,99409.91
2022-08-26T17:53:42.823Z,99410.47
2022-08-26T17:56:13.331Z,99402.31
2022-08-26T17:58:48.016Z,99405.97
2022-08-26T18:01:21.719Z,99405.84
2022-08-26T18:03:49.675Z,99398.16
2022-08-26T18:06:16.883Z,99402.97
2022-08-26T18:08:44.839Z,99396.97
2022-08-26T18:11:16.400Z,99393.94
2022-08-26T18:13:46.935Z,99386.88
2022-08-26T18:16:17.555Z,99390.31
2022-08-26T18:18:45.332Z,99393.00
2022-08-26T18:21:17.280Z,99394.44
2022-08-26T18:23:46.710Z,99390.09
2022-08-26T18:26:38.443Z,99395.16
2022-08-26T18:29:07.384Z,99392.00
2022-08-26T18:31:34.843Z,99393.28
2022-08-26T18:34:05.477Z,99393.28
2022-08-26T18:36:35.248Z,99410.53
2022-08-26T18:39:05.072Z,99413.97
2022-08-26T18:41:38.474Z,99417.69
2022-08-26T18:44:05.563Z,99425.06
2022-08-26T18:46:32.587Z,99432.66
2022-08-26T18:48:59.655Z,99438.38
2022-08-26T18:51:32.974Z,99446.78
2022-08-26T18:54:02.671Z,99446.50
2022-08-26T18:56:30.413Z,99442.44
2022-08-26T18:58:58.955Z,99438.09
2022-08-26T19:01:27.776Z,99447.31
2022-08-26T19:04:00.354Z,99455.16
2022-08-26T19:06:32.706Z,99463.31
2022-08-26T19:09:00.474Z,99467.66
2022-08-26T19:11:31.648Z,99478.47
2022-08-26T19:13:59.118Z,99476.31
2022-08-26T19:16:27.489Z,99479.59
2022-08-26T19:18:56.052Z,99491.50
2022-08-26T19:21:23.503Z,99496.41
2022-08-26T19:23:51.305Z,99498.84
2022-08-26T19:26:19.249Z,99497.22
2022-08-26T19:28:49.313Z,99506.41
2022-08-26T19:31:16.403Z,99516.72
2022-08-26T19:33:45.459Z,99510.81
2022-08-26T19:36:20.017Z,99503.72
2022-08-26T19:38:47.574Z,99496.69
2022-08-26T19:41:20.644Z,99496.69
2022-08-26T19:43:48.784Z,99493.97
2022-08-26T19:46:20.251Z,99486.44
2022-08-26T19:48:49.250Z,99486.44
2022-08-26T19:51:29.402Z,99482.66
2022-08-26T19:53:58.857Z,99488.63
2022-08-26T19:56:27.958Z,99482.38
2022-08-26T19:58:55.768Z,99479.94
2022-08-26T20:01:23.419Z,99482.66
2022-08-26T20:03:50.675Z,99478.06
2022-08-26T20:06:18.378Z,99484.53
2022-08-26T20:08:45.814Z,99484.84
2022-08-26T20:11:16.900Z,99482.72
2022-08-26T20:13:46.716Z,99485.91
2022-08-26T20:16:15.348Z,99485.16
2022-08-26T20:19:16.877Z,99485.97
2022-08-26T20:21:43.849Z,99490.28
2022-08-26T20:24:18.441Z,99494.59
2022-08-26T20:26:53.690Z,99494.63
2022-08-26T20:29:21.569Z,99500.59
2022-08-26T20:31:49.109Z,99494.13
2022-08-26T20:34:18.768Z,99491.97
2022-08-26T20:36:49.559Z,99499.56
2022-08-26T20:39:18.685Z,99490.94
2022-08-26T20:41:45.837Z,99501.50
2022-08-26T20:44:13.907Z,99499.09
2022-08-26T20:46:41.169Z,99502.88
2022-08-26T20:49:08.253Z,99502.88
2022-08-26T20:51:37.321Z,99498.03
2022-08-26T20:54:06.973Z,99496.69
2022-08-26T20:56:35.065Z,99497.50
2022-08-26T20:59:03.585Z,99497.22
2022-08-26T21:01:34.928Z,99497.81
2022-08-26T21:04:06.142Z,99492.38
2022-08-26T21:06:33.924Z,99492.13
2022-08-26T21:09:03.380Z,99491.31
2022-08-26T21:11:31.082Z,99492.13
2022-08-26T21:14:06.768Z,99491.03
2022-08-26T21:16:43.930Z,99500.25
2022-08-26T21:19:14.648Z,99495.91
2022-08-26T21:21:44.282Z,99489.91
2022-08-26T21:24:12.659Z,99492.13
2022-08-26T21:26:40.081Z,99485.09
2022-08-26T21:29:09.549Z,99491.31
2022-08-26T21:31:41.039Z,99490.50
2022-08-26T21:34:12.132Z,99495.91
2022-08-26T21:36:39.154Z,99498.63
2022-08-26T21:39:11.246Z,99507.56
2022-08-26T21:41:39.945Z,99511.09
2022-08-26T21:44:07.468Z,99518.41
2022-08-26T21:46:37.098Z,99519.22
2022-08-26T21:49:07.626Z,99517.56
2022-08-26T21:51:38.481Z,99518.88
2022-08-26T21:54:10.757Z,99523.00
2022-08-26T21:56:41.962Z,99524.31
2022-08-26T21:59:09.848Z,99529.72
2022-08-26T22:01:37.677Z,99527.00
2022-08-26T22:04:08.460Z,99533.25
2022-08-26T22:06:43.996Z,99535.94
2022-08-26T22:09:12.349Z,99534.91
2022-08-26T22:11:40.470Z,99537.09
2022-08-26T22:14:08.040Z,99530.84
2022-08-26T22:16:35.069Z,99540.88
2022-08-26T22:19:02.312Z,99538.97
2022-08-26T22:21:29.372Z,99541.94
2022-08-26T22:23:58.725Z,99545.47
2022-08-26T22:26:29.726Z,99553.59
2022-08-26T22:28:59.478Z,99546.84
2022-08-26T22:31:37.025Z,99543.84
2022-08-26T22:34:09.202Z,99543.28
2022-08-26T22:36:43.213Z,99546.19
2022-08-26T22:39:18.813Z,99547.81
2022-08-26T22:41:48.370Z,99552.66
2022-08-26T22:44:17.573Z,99556.94
2022-08-26T22:46:45.654Z,99558.53
2022-08-26T22:49:17.248Z,99557.41
2022-08-26T22:51:45.365Z,99557.66
2022-08-26T22:54:13.685Z,99551.13
2022-08-26T22:56:40.962Z,99555.75
2022-08-26T22:59:08.677Z,99554.09
2022-08-26T23:01:39.794Z,99558.72
2022-08-26T23:04:07.815Z,99556.00
2022-08-26T23:06:38.594Z,99561.66
2022-08-26T23:09:07.135Z,99566.50
2022-08-26T23:11:34.728Z,99563.81
2022-08-26T23:14:06.246Z,99558.38
2022-08-26T23:16:41.536Z,99559.47
2022-08-26T23:19:12.313Z,99558.38
2022-08-26T23:21:39.540Z,99552.38
2022-08-26T23:24:07.465Z,99560.81
2022-08-26T23:26:36.169Z,99558.94
2022-08-26T23:29:05.247Z,99552.72
2022-08-26T23:31:32.673Z,99552.97
2022-08-26T23:34:18.720Z,99554.59
2022-08-26T23:36:46.348Z,99556.22
2022-08-26T23:39:14.650Z,99550.00
2022-08-26T23:41:42.457Z,99556.22
2022-08-26T23:44:09.507Z,99554.59
2022-08-26T23:46:37.124Z,99554.59
2022-08-26T23:49:04.797Z,99555.69
2022-08-26T23:51:50.250Z,99563.28
2022-08-26T23:54:17.239Z,99558.94
2022-08-26T23:56:44.346Z,99563.28
2022-08-26T23:59:11.593Z,99565.16
